Metar Cercanos

 

LEPA - Palma De Mallorc, Spain
Distance from station: ONO 38km
Actualización: Sun, 29-May-2022 8:00am CEST
Despejado
Despejado
 Viento del calm
Viento: Calma
Temperatura: 19°C
Rocío: 14°C
Humedad: 73%
Barómetro: 1007 hPa
Resumen: Despejado
Visibility: greater than 10 km
2022/05/29 06:00 LEPA 290600Z 00000KT CAVOK 19/14 Q1007 NOSIG
LEMH - Mahon/Menorca Is, Spain
Distance from station: ENE 105km
Actualización: Sun, 29-May-2022 8:00am CEST
Despejado
Despejado
 Viento del NNE
Viento: NNE 9 km/h
Temperatura: 22°C
Rocío: 14°C
Humedad: 61%
Barómetro: 1008 hPa
Resumen: Despejado
Visibility: greater than 10 km
2022/05/29 06:00 LEMH 290600Z 03005KT CAVOK 22/14 Q1008
 
LEIB - Ibiza/Es Codola, Spain
Distance from station: OSO 165km
Actualización: Sun, 29-May-2022 8:00am CEST
Despejado
Despejado
 Viento del OSO
Viento: OSO 15 km/h
Temperatura: 21°C
Rocío: 18°C
Humedad: 83%
Barómetro: 1006 hPa
Resumen: Despejado
Visibility: greater than 10 km
2022/05/29 06:00 LEIB 290600Z 24008KT CAVOK 21/18 Q1006 NOSIG
LEBL - Barcelona Airpor, Spain
Distance from station: NNO 225km
Actualización: Sun, 29-May-2022 8:00am CEST
Few Clouds
Few Clouds
 Viento del ENE
Viento: ENE 15 km/h
Temperatura: 20°C
Rocío: 18°C
Humedad: 88%
Barómetro: 1008 hPa
Clouds: Few Clouds
Visibility: 10 km
Cloud details: Few Clouds 305 m
2022/05/29 06:00 LEBL 290600Z 06008KT 9999 FEW010 20/18 Q1008 NOSIG
 
LEVC - Valencia (civ/Mi, Spain
Distance from station: NO 188km
Actualización: Sun, 29-May-2022 8:00am CEST
Few Clouds
Few Clouds
 Viento del ENE
Viento: ENE 9 km/h
Temperatura: 23°C
Rocío: 10°C
Humedad: 44%
Barómetro: 1006 hPa
Clouds: Few Clouds
Visibility: 10 km
Cloud details: Few Clouds 914 m
2022/05/29 06:00 LEVC 290600Z 07005KT 020V130 9999 FEW030 23/10 Q1006 NOSIG
LEGE - Gerona/Costa Bra, Spain
Distance from station: N 276km
Actualización: Sun, 29-May-2022 8:00am CEST
Despejado
Despejado
 Viento del calm
Viento: Calma
Temperatura: 18°C
Rocío: 14°C
Humedad: 78%
Barómetro: 1008 hPa
Resumen: Despejado
Visibility: greater than 10 km
2022/05/29 06:00 LEGE 290600Z 00000KT CAVOK 18/14 Q1008
 
LEAL - Alicante/El Alte, Spain
Distance from station: OSO 344km
Actualización: Sun, 29-May-2022 8:00am CEST
Despejado
Despejado
 Viento del OSO
Viento: OSO 15 km/h
Temperatura: 21°C
Rocío: 10°C
Humedad: 50%
Barómetro: 1007 hPa
Resumen: Despejado
Visibility: greater than 10 km
2022/05/29 06:00 LEAL 290600Z 25008KT 210V280 CAVOK 21/10 Q1007 NOSIG
LEAM - Almeria Airport, Spain
Distance from station: SSO 56km
Actualización: Sun, 29-May-2022 8:00am CEST
Despejado
Despejado
 Viento del E
Viento: E 7 km/h
Temperatura: 20°C
Rocío: 13°C
Humedad: 64%
Barómetro: 1008 hPa
Resumen: Despejado
Visibility: greater than 10 km
2022/05/29 06:00 LEAM 290600Z 08004KT 020V110 CAVOK 20/13 Q1008
 
LEZG - Zaragoza (mil/Ci, Spain
Distance from station: NO 431km
Actualización: Sun, 29-May-2022 8:00am CEST
Despejado
Despejado
 Viento del ONO
Viento: ONO 26 km/h
Temperatura: 18°C
Rocío: 11°C
Humedad: 64%
Barómetro: 1009 hPa
Resumen: Despejado
Visibility: greater than 10 km
2022/05/29 06:00 LEZG 290600Z 29014KT CAVOK 18/11 Q1009
LEMD - Madrid/Barajas, Spain
Distance from station: ONO 234km
Actualización: Sun, 29-May-2022 8:00am CEST
Despejado
Despejado
 Viento del varies
Viento: varies 2 km/h
Temperatura: 16°C
Rocío: 7°C
Humedad: 55%
Barómetro: 1010 hPa
Resumen: Despejado
Visibility: greater than 10 km
2022/05/29 06:00 LEMD 290600Z VRB01KT CAVOK 16/07 Q1010 NOSIG
 
LEGR - Granada Airport, Spain
Distance from station: OSO 62km
Actualización: Sun, 29-May-2022 8:00am CEST
Despejado
Despejado
 Viento del O
Viento: O 6 km/h
Temperatura: 14°C
Rocío: 7°C
Humedad: 63%
Barómetro: 1012 hPa
Resumen: Despejado
Visibility: greater than 10 km
2022/05/29 06:00 LEGR 290600Z 26003KT 230V290 CAVOK 14/07 Q1012
LEMG - Malaga (civ/Mil), Spain
Distance from station: OSO 227km
Actualización: Sun, 29-May-2022 8:00am CEST
Despejado
Despejado
 Viento del ONO
Viento: ONO 20 km/h
Temperatura: 20°C
Rocío: 10°C
Humedad: 53%
Barómetro: 1010 hPa
Resumen: Despejado
Visibility: greater than 10 km
2022/05/29 06:00 LEMG 290600Z 29011KT 250V310 CAVOK 20/10 Q1010 NOSIG
 
LEZL - Sevilla (civ/Mil, Spain
Distance from station: S 318km
Actualización: Sun, 29-May-2022 8:00am CEST
Muy nuboso
Muy nuboso
 Viento del SO
Viento: SO 11 km/h
Temperatura: 19°C
Rocío: 13°C
Humedad: 68%
Barómetro: 1012 hPa
Clouds: Muy nuboso
Visibility: 10 km
Cloud details: Muy nuboso 823 m
2022/05/29 06:00 LEZL 290600Z 22006KT 190V260 9999 BKN027 19/13 Q1012 NOSIG
LEVT - Vitoria, Spain
Distance from station: NO 226km
Actualización: Sun, 29-May-2022 8:00am CEST
Despejado
Despejado
 Viento del calm
Viento: Calma
Temperatura: 9°C
Rocío: 9°C
Humedad: 100%
Barómetro: 1013 hPa
Resumen: Despejado
Visibility: greater than 10 km
2022/05/29 06:00 LEVT 290600Z 00000KT CAVOK 09/09 Q1013
 
LEBB - Bilbao/Sondica, Spain
Distance from station: NNO 235km
Actualización: Sun, 29-May-2022 8:00am CEST
Few Clouds
Few Clouds
 Viento del E
Viento: E 7 km/h
Temperatura: 13°C
Rocío: 12°C
Humedad: 94%
Barómetro: 1012 hPa
Clouds: Few Clouds
Visibility: 10 km
Cloud details: Few Clouds 91 m
2022/05/29 06:00 LEBB 290600Z 08004KT 060V120 9999 FEW003 13/12 Q1012
LESO - San Sebastian/Fu, Spain
Distance from station: N 231km
Actualización: Sun, 29-May-2022 8:00am CEST
Despejado
Despejado
 Viento del varies
Viento: varies 4 km/h
Temperatura: 15°C
Rocío: 13°C
Humedad: 88%
Barómetro: 1012 hPa
Resumen: Despejado
Visibility: greater than 10 km
2022/05/29 06:00 LESO 290600Z VRB02KT CAVOK 15/13 Q1012
 
LEVD - Valladolid(Mil/C, Spain
Distance from station: ONO 239km
Actualización: Sun, 29-May-2022 8:00am CEST
Despejado
Despejado
 Viento del NE
Viento: NE 13 km/h
Temperatura: 12°C
Rocío: 8°C
Humedad: 77%
Barómetro: 1011 hPa
Resumen: Despejado
Visibility: greater than 10 km
2022/05/29 06:00 LEVD 290600Z 05007KT CAVOK 12/08 Q1011
LESA - Salamanca (civ/M, Spain
Distance from station: ONO 349km
Actualización: Sun, 29-May-2022 8:00am CEST
Despejado
Despejado
 Viento del SSO
Viento: SSO 6 km/h
Temperatura: 12°C
Rocío: 9°C
Humedad: 82%
Barómetro: 1011 hPa
Resumen: Despejado
Visibility: greater than 10 km
2022/05/29 06:00 LESA 290600Z 20003KT 170V230 CAVOK 12/09 Q1011
 
LEXJ - Santander/Paraya, Spain
Distance from station: NNO 247km
Actualización: Sun, 29-May-2022 8:00am CEST
Despejado
Despejado
 Viento del calm
Viento: Calma
Temperatura: 13°C
Rocío: 12°C
Humedad: 94%
Barómetro: 1012 hPa
Resumen: Despejado
Visibility: greater than 10 km
2022/05/29 06:00 LEXJ 290600Z 00000KT CAVOK 13/12 Q1012
LEAS - Asturias/Aviles, Spain
Distance from station: NO 214km
Actualización: Sun, 29-May-2022 8:00am CEST
Few Clouds
Few Clouds
 Viento del ESE
Viento: ESE 6 km/h
Temperatura: 14°C
Rocío: 13°C
Humedad: 94%
Barómetro: 1011 hPa
Clouds: Few Clouds
Visibility: 9 km
Cloud details: Few Clouds 61 m
2022/05/29 06:00 LEAS 290600Z 12003KT 080V180 9000 FEW002 14/13 Q1011 NOSIG
 
LECO - La Coruna/Alvedr, Spain
Distance from station: ONO 222km
Actualización: Sun, 29-May-2022 8:00am CEST
Despejado
Despejado
 Viento del SSE
Viento: SSE 6 km/h
Temperatura: 14°C
Rocío: 13°C
Humedad: 94%
Barómetro: 1009 hPa
Resumen: Despejado
Visibility: greater than 10 km
2022/05/29 06:00 LECO 290600Z 15003KT CAVOK 14/13 Q1009 NOSIG
LEVX - Vigo/Peinador, Spain
Distance from station: O 214km
Actualización: Sun, 29-May-2022 8:00am CEST
Patches of fog, Parcialmente nuboso
Patches of fog, Parcialmente nuboso
 Viento del O
Viento: O 9 km/h
Temperatura: 15°C
Rocío: 14°C
Humedad: 94%
Barómetro: 1009 hPa
Resumen: Patches of Fog
Clouds: Parcialmente nuboso
Visibility: 8 km
Cloud details: Parcialmente nuboso 30 m
2022/05/29 06:00 LEVX 290600Z 26005KT 8000 0900S BCFG SCT001 15/14 Q1009 NOSIG